Suomigracht — PHBT — position and weather

sailwx.info

Track history (hours):
 
Tides and Currents Weather Stations Pressure Air Temp Water Temp Dewpoint Dewpoint Depression Visibility Wind Speed Wind Dir Waves Ship Positions

Suomigracht

Last reported at 2016-Sep-19 23:09 UTC. Time now 2016-Sep-25 01:58 UTC.
Position N 39°18' W 030°46'.

Length 173 m; beam 26 m.

Type: Cargo ship. MMSI: 246100000.

Date/timePositionNaut miles runAvg speedWind from/ knotsBaromVisibWave heightAir tempDewpointWater temp
2016-Sep-19 23:09N 39°18' W 030°46'6217.2
2016-Sep-19 19:33N 39°49' W 029°36'  
2016-Sep-16 15:26N 49°49' W 003°37'10917.2
2016-Sep-16 09:06N 50°34' W 001°01'14 9.2
2016-Sep-16 07:33N 50°46' W 001°13'11 1.6
2016-Sep-16 00:31N 50°54' W 001°25'0 0.0
2016-Sep-15 04:30N 50°54' W 001°25'0 0.0
2016-Sep-15 03:30N 50°54' W 001°25'0 0.0
2016-Sep-15 01:33N 50°54' W 001°25'0 0.0
2016-Sep-14 22:30N 50°54' W 001°25'0 0.0
2016-Sep-14 21:30N 50°54' W 001°25'1 0.2
2016-Sep-14 17:33N 50°53' W 001°24'8 8.0
2016-Sep-14 16:34N 50°46' W 001°18'4916.2
2016-Sep-14 13:33N 50°32' W 000°05'1918.8
2016-Sep-14 12:31N 50°37' E 000°25'3417.0
2016-Sep-14 10:32N 50°55' E 001°09'1414.6
2016-Sep-14 09:33N 51°04' E 001°27'1615.6
2016-Sep-14 08:33N 51°14' E 001°46'1717.5
2016-Sep-14 07:34N 51°29' E 002°01'1818.3
2016-Sep-14 06:33N 51°43' E 002°20'5317.6
2016-Sep-14 03:33N 52°24' E 003°15'8116.2
2016-Sep-13 22:33N 53°27' E 004°37'3517.7
2016-Sep-13 20:33N 53°40' E 005°33'2914.5
2016-Sep-13 18:33N 53°37' E 006°22'1414.4
2016-Sep-13 17:33N 53°32' E 006°44'6 5.7
2016-Sep-13 16:33N 53°27' E 006°50'0 0.0
2016-Sep-13 11:28N 53°27' E 006°50'0 0.0
2016-Sep-13 09:31N 53°27' E 006°50'0 0.0
2016-Sep-13 07:31N 53°27' E 006°50'0 0.0
2016-Sep-13 06:31N 53°27' E 006°50'0 0.0
2016-Sep-13 04:31N 53°27' E 006°50'0 0.0
2016-Sep-13 02:31N 53°27' E 006°50'0 0.0
2016-Sep-12 23:31N 53°27' E 006°50'0 0.0
2016-Sep-12 21:31N 53°27' E 006°50'0 0.0
2016-Sep-12 19:31N 53°27' E 006°50'0 0.0
2016-Sep-12 17:31N 53°27' E 006°50'23 7.8
2016-Sep-12 14:33N 53°40' E 006°17'9 9.4
2016-Sep-12 13:33N 53°49' E 006°21'1111.1
2016-Sep-12 12:33N 54°00' E 006°19'1111.4
2016-Sep-12 11:33N 54°12' E 006°20'1111.1
2016-Sep-12 10:33N 54°20' E 006°31'4615.3
2016-Sep-12 07:33N 55°06' E 006°38'1515.3
2016-Sep-12 06:33N 55°21' E 006°44'19513.9
2016-Sep-11 16:33N 57°49' E 010°34'1913.7
2016-Sep-11 15:11N 57°39' E 011°04'914.5
2016-Sep-11 14:33N 57°33' E 011°16'1414.4
2016-Sep-11 13:33N 57°21' E 011°31'1515.1
2016-Sep-11 12:33N 57°07' E 011°40'1514.5
2016-Sep-11 11:33N 56°53' E 011°50'1313.4
2016-Sep-11 10:33N 56°40' E 011°49'5015.6
2016-Sep-11 07:20N 55°57' E 011°01'5715.1
2016-Sep-11 03:33N 55°00' E 010°59'1817.9
2016-Sep-11 02:33N 54°44' E 010°47'1514.9
2016-Sep-11 01:33N 54°36' E 011°09'1817.6
2016-Sep-11 00:33N 54°29' E 011°36'1716.7
2016-Sep-10 23:33N 54°20' E 012°01'1110.9
2016-Sep-10 22:34N 54°09' E 012°06'1 1.1
2016-Sep-10 21:33N 54°08' E 012°06'0 0.0
2016-Sep-10 18:04N 54°08' E 012°06'0 0.0
2016-Sep-10 16:25N 54°08' E 012°06'0 0.0
2016-Sep-10 12:31N 54°08' E 012°06'0 0.0
2016-Sep-10 11:19N 54°08' E 012°06'1 1.8
2016-Sep-10 10:34N 54°10' E 012°06'9 8.6
2016-Sep-10 09:33N 54°18' E 012°00'9 9.4
2016-Sep-10 08:33N 54°26' E 012°07'1312.7
2016-Sep-10 07:33N 54°37' E 012°17'1413.7
2016-Sep-10 06:33N 54°45' E 012°37'1515.2
2016-Sep-10 05:33N 54°51' E 013°01'1717.4
2016-Sep-10 04:33N 54°57' E 013°30'1717.3
2016-Sep-10 03:33N 55°03' E 013°58'1716.7
2016-Sep-10 02:33N 55°15' E 014°19'1817.5
2016-Sep-10 01:33N 55°28' E 014°39'1717.5
2016-Sep-10 00:33N 55°36' E 015°06'  
Track history (hours):
 
Tides and Currents Weather Stations Pressure Air Temp Water Temp Dewpoint Dewpoint Depression Visibility Wind Speed Wind Dir Waves Ship Positions

Suomigracht

Last reported at 2016-Sep-19 23:09 UTC. Time now 2016-Sep-25 01:58 UTC.
Position N 39°18' W 030°46'.

Length 173 m; beam 26 m.

Type: Cargo ship. MMSI: 246100000.

Date/timePositionNaut miles runAvg speedWind from/ knotsBaromVisibWave heightAir tempDewpointWater temp
2016-Sep-19 23:09N 39°18' W 030°46'6217.2
2016-Sep-19 19:33N 39°49' W 029°36'  
2016-Sep-16 15:26N 49°49' W 003°37'10917.2
2016-Sep-16 09:06N 50°34' W 001°01'14 9.2
2016-Sep-16 07:33N 50°46' W 001°13'11 1.6
2016-Sep-16 00:31N 50°54' W 001°25'0 0.0
2016-Sep-15 04:30N 50°54' W 001°25'0 0.0
2016-Sep-15 03:30N 50°54' W 001°25'0 0.0
2016-Sep-15 01:33N 50°54' W 001°25'0 0.0
2016-Sep-14 22:30N 50°54' W 001°25'0 0.0
2016-Sep-14 21:30N 50°54' W 001°25'1 0.2
2016-Sep-14 17:33N 50°53' W 001°24'8 8.0
2016-Sep-14 16:34N 50°46' W 001°18'4916.2
2016-Sep-14 13:33N 50°32' W 000°05'1918.8
2016-Sep-14 12:31N 50°37' E 000°25'3417.0
2016-Sep-14 10:32N 50°55' E 001°09'1414.6
2016-Sep-14 09:33N 51°04' E 001°27'1615.6
2016-Sep-14 08:33N 51°14' E 001°46'1717.5
2016-Sep-14 07:34N 51°29' E 002°01'1818.3
2016-Sep-14 06:33N 51°43' E 002°20'5317.6
2016-Sep-14 03:33N 52°24' E 003°15'8116.2
2016-Sep-13 22:33N 53°27' E 004°37'3517.7
2016-Sep-13 20:33N 53°40' E 005°33'2914.5
2016-Sep-13 18:33N 53°37' E 006°22'1414.4
2016-Sep-13 17:33N 53°32' E 006°44'6 5.7
2016-Sep-13 16:33N 53°27' E 006°50'0 0.0
2016-Sep-13 11:28N 53°27' E 006°50'0 0.0
2016-Sep-13 09:31N 53°27' E 006°50'0 0.0
2016-Sep-13 07:31N 53°27' E 006°50'0 0.0
2016-Sep-13 06:31N 53°27' E 006°50'0 0.0
2016-Sep-13 04:31N 53°27' E 006°50'0 0.0
2016-Sep-13 02:31N 53°27' E 006°50'0 0.0
2016-Sep-12 23:31N 53°27' E 006°50'0 0.0
2016-Sep-12 21:31N 53°27' E 006°50'0 0.0
2016-Sep-12 19:31N 53°27' E 006°50'0 0.0
2016-Sep-12 17:31N 53°27' E 006°50'23 7.8
2016-Sep-12 14:33N 53°40' E 006°17'9 9.4
2016-Sep-12 13:33N 53°49' E 006°21'1111.1
2016-Sep-12 12:33N 54°00' E 006°19'1111.4
2016-Sep-12 11:33N 54°12' E 006°20'1111.1
2016-Sep-12 10:33N 54°20' E 006°31'4615.3
2016-Sep-12 07:33N 55°06' E 006°38'1515.3
2016-Sep-12 06:33N 55°21' E 006°44'19513.9
2016-Sep-11 16:33N 57°49' E 010°34'1913.7
2016-Sep-11 15:11N 57°39' E 011°04'914.5
2016-Sep-11 14:33N 57°33' E 011°16'1414.4
2016-Sep-11 13:33N 57°21' E 011°31'1515.1
2016-Sep-11 12:33N 57°07' E 011°40'1514.5
2016-Sep-11 11:33N 56°53' E 011°50'1313.4
2016-Sep-11 10:33N 56°40' E 011°49'5015.6
2016-Sep-11 07:20N 55°57' E 011°01'5715.1
2016-Sep-11 03:33N 55°00' E 010°59'1817.9
2016-Sep-11 02:33N 54°44' E 010°47'1514.9
2016-Sep-11 01:33N 54°36' E 011°09'1817.6
2016-Sep-11 00:33N 54°29' E 011°36'1716.7
2016-Sep-10 23:33N 54°20' E 012°01'1110.9
2016-Sep-10 22:34N 54°09' E 012°06'1 1.1
2016-Sep-10 21:33N 54°08' E 012°06'0 0.0
2016-Sep-10 18:04N 54°08' E 012°06'0 0.0
2016-Sep-10 16:25N 54°08' E 012°06'0 0.0
2016-Sep-10 12:31N 54°08' E 012°06'0 0.0
2016-Sep-10 11:19N 54°08' E 012°06'1 1.8
2016-Sep-10 10:34N 54°10' E 012°06'9 8.6
2016-Sep-10 09:33N 54°18' E 012°00'9 9.4
2016-Sep-10 08:33N 54°26' E 012°07'1312.7
2016-Sep-10 07:33N 54°37' E 012°17'1413.7
2016-Sep-10 06:33N 54°45' E 012°37'1515.2
2016-Sep-10 05:33N 54°51' E 013°01'1717.4
2016-Sep-10 04:33N 54°57' E 013°30'1717.3
2016-Sep-10 03:33N 55°03' E 013°58'1716.7
2016-Sep-10 02:33N 55°15' E 014°19'1817.5
2016-Sep-10 01:33N 55°28' E 014°39'1717.5
2016-Sep-10 00:33N 55°36' E 015°06'  

Dump ship's entire track history